Elkton, Illinois
Current Conditions -  °F | °C
As of 8:15 AM on Thursday 29 Jan 2015 (Local Time) from KSAR Reporting Station
Overcast Overcast  
Wind Chill: 36°   Ceiling: 2500
Heat Index: 44°   Visibility: 10mi
Dew Point: 36°   Wind: 16mph
Humidity: 74%   Direction: 300°WNW
Pressure: 30.01"   Gusts: 23mph
Location:  38.2623°N, 89.5911°W
Report Text: KSAR 291415Z AUTO 30014G20KT 10SM BKN025 OVC030 07/02 A3001 RMK AO2 T00650021
Loading
Personal Weather Stations






























Interactive Weather Map New forecast layout! Learn more

10-Day Weather Forecast

Advertisements
Track Severe Weather on mobile